Hundvaag 1 weather for Jun 2004
Month no. 204
Obs.
Da.
Temp. Dew Point Precip. Wind
Speed
Wind gusts Cloud cover Press. Humidity Wind dir. Sunny OPT
01.06.2004 9,9   0,0 3,0   10 1020,9 100,0 135,0 1 87,5 %
02.06.2004 6,6   0,0 2,0   10 1017,4 100,0 337,5 1 85,0 %
03.06.2004 6,2   0,0 3,0   10 1019,7 100,0 67,5 1 85,0 %
04.06.2004 11,2   4,6 9,0   0 1013,4 94,0 180,0 1 57,5 %
05.06.2004 11,4   0,2 5,0   4 1013,2 77,0 337,5 1 72,5 %
06.06.2004 11,1   0,0 7,0   0 1011,6 100,0 202,5 1 62,5 %
07.06.2004 13,4   0,6 10,0   0 1011,3 94,0 180,0   62,5 %
08.06.2004 11,2   0,1 6,0   4 1014,5 94,0 337,5 1 72,5 %
09.06.2004 13,4   0,0 8,0   9 1016,1 82,0 135,0 1 85,0 %
10.06.2004 12,5   6,0 0,0   0 1012,0 100,0     62,5 %
11.06.2004 13,1   13,0 5,0   0 1009,4 100,0 112,5 1 55,0 %
12.06.2004 12,3   6,2 1,0   3 1008,7 100,0 337,5 1 67,5 %
13.06.2004 9,7   0,0 3,0   9 1022,9 100,0 337,5 1 85,0 %
14.06.2004 12,0   1,3 5,0   0 1015,9 100,0 270,0   62,5 %
15.06.2004 9,9   9,0 6,0   0 1010,1 100,0 0,0   52,5 %
16.06.2004 10,1   2,3 14,0   3 1013,3 81,0 337,5 1 65,0 %
17.06.2004 9,3   0,0 0,0   1 1008,3 87,0   1 65,0 %
18.06.2004 9,7   0,8 10,0   6 1005,3 87,0 315,0 1 72,5 %
19.06.2004 12,1   0,0 18,0   2 1002,5 82,0 337,5 1 60,0 %
20.06.2004 12,9   1,0 5,0   0 1002,2 93,0 180,0   65,0 %
21.06.2004 8,8   5,3 2,0   1 1004,4 93,0     62,5 %
22.06.2004 12,6   6,9 6,0   7 1010,0 93,0 135,0 1 77,5 %
23.06.2004 11,8   0,0 2,0   10 1010,5 87,0   1 90,0 %
24.06.2004 14,9   0,1 8,0   1 999,4 67,0 67,5 1 65,0 %
25.06.2004 12,5   2,0 0,0   0 1001,6 88,0     67,5 %
26.06.2004 10,6   0,5 4,0   9 1013,4 85,0 337,5 1 85,0 %
27.06.2004 10,9   0,0 2,0   2 1015,1 83,0 247,5 1 70,0 %
28.06.2004 12,8   0,0 3,0   0 1011,7 88,0 67,5 1 67,5 %
29.06.2004 12,0   0,0 8,0   0 1013,4 82,0 315,0 1 60,0 %
30.06.2004 11,0   0,0 0,0   10 1013,1 71,0   1 90,0 %
                       
Avrg/Sum 11,2   59,9 5,2   3,7 1011,4 90,3 221,3 23 70,6 %